Time;durP1;ratioP1;P1;durP2;ratioP2;P2;SDS_P1;SDS_P2;PMS_P1;PMS_P2;Temp;Humidity;BMP_temperature;BMP_pressure;BME280_temperature;BME280_humidity;BME280_pressure;Samples;Min_cycle;Max_cycle;Signal;HPM_P1;HPM_P2
2022/02/05 00:02:29;;;;;;;1.55;1.30;;;4.00;99.90;;;;;;5102824;28;20607;-83
2022/02/05 00:04:56;;;;;;;1.40;1.30;;;4.00;99.90;;;;;;5100961;28;20182;-83
2022/02/05 00:07:27;;;;;;;2.00;0.90;;;4.10;99.90;;;;;;5104990;28;20198;-83
2022/02/05 00:10:13;;;;;;;1.55;1.45;;;4.10;99.90;;;;;;5109493;28;20231;-85
2022/02/05 00:12:53;;;;;;;1.15;1.02;;;4.00;99.90;;;;;;5104134;28;20189;-83
2022/02/05 00:15:30;;;;;;;1.25;1.17;;;3.80;99.90;;;;;;5102235;28;20262;-84
2022/02/05 00:40:04;;;;;;;1.40;1.30;;;3.60;99.90;;;;;;5100947;28;20227;-82
2022/02/05 00:42:33;;;;;;;3.78;1.30;;;4.00;99.90;;;;;;5101413;28;20190;-82
2022/02/05 00:45:05;;;;;;;1.60;1.50;;;4.10;99.90;;;;;;5109505;28;20202;-85
2022/02/05 00:47:33;;;;;;;4.40;2.38;;;4.10;99.90;;;;;;5100985;28;20178;-83
2022/02/05 00:50:01;;;;;;;3.38;1.80;;;4.00;99.90;;;;;;5103077;28;20218;-85
2022/02/05 00:52:28;;;;;;;2.30;2.10;;;4.00;99.90;;;;;;5101946;28;20205;-84
2022/02/05 00:55:03;;;;;;;2.63;2.42;;;4.00;99.90;;;;;;5102100;28;20201;-84
2022/02/05 00:57:44;;;;;;;4.22;2.50;;;3.50;99.90;;;;;;5103638;28;20228;-84
2022/02/05 01:00:13;;;;;;;2.90;2.03;;;4.00;99.90;;;;;;5105738;28;20273;-83
2022/02/05 01:02:40;;;;;;;2.88;2.40;;;4.10;99.90;;;;;;5105045;28;20546;-83
2022/02/05 01:05:07;;;;;;;5.47;2.30;;;3.70;99.90;;;;;;5108613;28;20208;-84
2022/02/05 01:07:34;;;;;;;2.30;2.10;;;4.10;99.90;;;;;;5103271;28;20190;-84
2022/02/05 01:10:02;;;;;;;3.88;2.50;;;4.00;99.90;;;;;;5103763;28;20222;-85
2022/02/05 01:12:32;;;;;;;2.72;2.53;;;4.00;99.90;;;;;;5106255;28;20227;-84
2022/02/05 01:15:01;;;;;;;4.70;2.70;;;4.00;99.90;;;;;;5106659;28;20213;-83
2022/02/05 01:17:32;;;;;;;2.90;2.70;;;4.20;99.90;;;;;;5104502;28;20292;-84
2022/02/05 01:20:26;;;;;;;2.67;2.35;;;4.20;99.90;;;;;;5105658;28;20203;-84
2022/02/05 01:22:54;;;;;;;4.47;2.80;;;4.20;99.90;;;;;;5105844;28;20205;-83
2022/02/05 01:25:27;;;;;;;6.45;2.53;;;4.20;99.90;;;;;;5104232;28;20222;-85
2022/02/05 01:27:57;;;;;;;5.00;3.25;;;4.20;99.90;;;;;;5109461;28;20186;-83
2022/02/05 01:30:27;;;;;;;4.35;3.30;;;4.20;99.90;;;;;;5108247;28;20281;-82
2022/02/05 01:33:11;;;;;;;3.53;2.67;;;4.20;99.90;;;;;;5103445;28;20182;-83
2022/02/05 01:35:45;;;;;;;4.47;2.83;;;4.20;99.90;;;;;;5105366;28;20221;-82
2022/02/05 01:52:12;;;;;;;3.10;2.42;;;4.30;99.90;;;;;;5112891;28;20214;-82
2022/02/05 01:54:52;;;;;;;3.85;2.65;;;4.10;99.90;;;;;;5113309;28;20211;-83
2022/02/05 01:57:25;;;;;;;2.28;2.08;;;4.20;99.90;;;;;;5106869;28;20225;-83
2022/02/05 02:04:46;;;;;;;7.63;2.90;;;4.20;99.90;;;;;;5105268;28;20190;-83
2022/02/05 02:05:31;;;;;;;7.35;2.67;;;;;;;;;;5115992;22;20683;-83
2022/02/05 02:11:10;;;;;;;2.20;2.00;;;4.40;99.90;;;;;;5082319;28;20218;-84
2022/02/05 02:14:04;;;;;;;4.40;2.85;;;4.40;99.90;;;;;;5082158;28;20186;-83
2022/02/05 02:16:46;;;;;;;4.95;2.70;;;4.30;99.90;;;;;;5071623;28;20227;-85
2022/02/05 02:19:22;;;;;;;2.72;2.40;;;4.40;99.90;;;;;;5062232;28;20245;-83
2022/02/05 02:21:55;;;;;;;5.63;2.90;;;4.40;99.90;;;;;;5063508;28;20187;-84
2022/02/05 02:24:30;;;;;;;10.95;2.88;;;4.30;99.90;;;;;;5076160;28;20187;-83
2022/02/05 02:27:10;;;;;;;8.15;2.53;;;4.30;99.90;;;;;;5075366;28;20233;-83
2022/02/05 02:29:49;;;;;;;2.58;2.35;;;4.30;99.90;;;;;;5066011;28;20187;-83
2022/02/05 02:32:16;;;;;;;6.40;2.70;;;4.30;99.90;;;;;;5065258;28;20211;-84
2022/02/05 02:34:48;;;;;;;7.43;2.47;;;4.20;99.90;;;;;;5070103;28;20286;-83
2022/02/05 02:37:20;;;;;;;9.15;2.80;;;4.20;99.90;;;;;;5070321;28;20223;-82
2022/02/05 02:40:01;;;;;;;6.43;2.88;;;4.20;99.90;;;;;;5073410;28;20554;-84
2022/02/05 02:42:28;;;;;;;6.38;2.50;;;4.20;99.90;;;;;;5071935;28;20567;-83
2022/02/05 02:44:54;;;;;;;4.50;2.40;;;4.20;99.90;;;;;;5072541;28;20236;-81
2022/02/05 02:47:21;;;;;;;4.70;2.75;;;4.10;99.90;;;;;;5072762;28;20223;-82
2022/02/05 02:49:55;;;;;;;7.07;2.78;;;4.20;99.90;;;;;;5072314;28;20203;-84
2022/02/05 02:57:56;;;;;;;9.10;2.40;;;4.30;99.90;;;;;;5073175;28;20202;-83
2022/02/05 03:00:23;;;;;;;5.40;2.00;;;4.30;99.90;;;;;;5062256;28;20566;-84
2022/02/05 03:02:50;;;;;;;12.77;3.60;;;4.30;99.90;;;;;;5062502;28;20209;-82
2022/02/05 03:05:17;;;;;;;4.65;2.47;;;4.10;99.90;;;;;;5061524;28;20221;-83
2022/02/05 03:07:45;;;;;;;3.90;2.22;;;4.60;99.90;;;;;;5060786;28;20316;-84
2022/02/05 03:10:12;;;;;;;7.75;2.35;;;4.40;99.90;;;;;;5060102;28;20260;-85
2022/02/05 03:12:38;;;;;;;3.42;2.45;;;4.40;99.90;;;;;;5061356;28;20210;-82
2022/02/05 03:15:06;;;;;;;6.60;2.67;;;4.50;99.90;;;;;;5061030;28;20203;-83
2022/02/05 03:17:39;;;;;;;8.20;3.55;;;4.60;99.90;;;;;;5060484;28;20223;-83
2022/02/05 03:20:06;;;;;;;4.78;2.80;;;4.60;99.90;;;;;;5068742;28;20291;-82
2022/02/05 03:22:33;;;;;;;12.50;2.45;;;4.70;99.90;;;;;;5077938;28;20179;-80
2022/02/05 03:25:01;;;;;;;6.15;2.40;;;4.60;99.90;;;;;;5079058;28;20183;-82
2022/02/05 03:27:28;;;;;;;5.63;2.40;;;4.70;99.90;;;;;;5079023;28;20206;-82
2022/02/05 03:29:55;;;;;;;5.00;2.30;;;4.60;99.90;;;;;;5077896;28;20229;-82
2022/02/05 03:32:24;;;;;;;5.95;3.00;;;4.50;99.90;;;;;;5075725;28;20221;-80
2022/02/05 03:34:50;;;;;;;7.50;2.80;;;4.50;99.90;;;;;;5076971;28;20191;-82
2022/02/05 03:37:19;;;;;;;5.45;2.97;;;4.50;99.90;;;;;;5064911;28;20547;-84
2022/02/05 03:39:46;;;;;;;4.90;2.83;;;4.40;99.90;;;;;;5059937;28;20298;-83
2022/02/05 03:42:14;;;;;;;7.45;3.10;;;4.40;99.90;;;;;;5060522;28;20199;-82
2022/02/05 03:44:41;;;;;;;7.55;3.50;;;4.40;99.90;;;;;;5060403;28;20230;-83
2022/02/05 03:47:08;;;;;;;4.82;3.25;;;4.40;99.90;;;;;;5058822;28;20253;-82
2022/02/05 03:49:35;;;;;;;9.57;3.55;;;4.30;99.90;;;;;;5061297;28;20203;-82
2022/02/05 03:52:01;;;;;;;7.20;3.50;;;4.20;99.90;;;;;;5059783;28;20223;-82
2022/02/05 03:54:30;;;;;;;5.65;3.58;;;4.20;99.90;;;;;;5057618;28;20210;-85
2022/02/05 03:56:57;;;;;;;4.85;3.72;;;4.30;99.90;;;;;;5057770;28;20231;-83
2022/02/05 03:59:25;;;;;;;5.78;3.10;;;4.30;99.90;;;;;;5057831;28;20238;-82
2022/02/05 04:01:53;;;;;;;9.82;3.15;;;4.10;99.90;;;;;;5058438;28;20203;-84
2022/02/05 04:04:21;;;;;;;6.85;4.00;;;4.00;99.90;;;;;;5058322;28;20209;-83
2022/02/05 04:06:48;;;;;;;9.38;4.00;;;3.90;99.90;;;;;;5058767;28;20231;-83
2022/02/05 04:09:19;;;;;;;7.63;3.63;;;3.80;99.90;;;;;;5057342;28;20199;-82
2022/02/05 04:11:58;;;;;;;7.25;4.55;;;3.80;99.90;;;;;;5057093;28;20303;-82
2022/02/05 04:17:11;;;;;;;9.10;3.90;;;3.80;99.90;;;;;;5055978;28;20424;-82
2022/02/05 04:19:37;;;;;;;9.48;4.05;;;3.70;99.90;;;;;;5057216;28;20440;-81
2022/02/05 04:22:05;;;;;;;10.38;4.40;;;3.70;99.90;;;;;;5063764;28;20210;-79
2022/02/05 04:24:32;;;;;;;7.13;3.33;;;3.70;99.90;;;;;;5065285;28;20205;-80
2022/02/05 04:26:58;;;;;;;7.97;3.97;;;3.80;99.90;;;;;;5068218;28;20219;-82
2022/02/05 04:29:26;;;;;;;5.97;4.10;;;3.80;99.90;;;;;;5069441;28;20203;-82
2022/02/05 04:31:53;;;;;;;13.88;4.07;;;3.80;99.90;;;;;;5078343;28;20234;-82
2022/02/05 04:34:19;;;;;;;10.45;3.47;;;3.80;99.90;;;;;;5072497;28;20209;-83
2022/02/05 04:36:47;;;;;;;10.45;4.90;;;3.90;99.90;;;;;;5070192;28;20227;-83
2022/02/05 04:39:16;;;;;;;6.78;3.72;;;3.90;99.90;;;;;;5080279;28;20183;-82
2022/02/05 04:41:49;;;;;;;10.45;4.32;;;4.00;99.90;;;;;;5080160;28;20207;-82
2022/02/05 04:44:30;;;;;;;5.03;4.50;;;4.00;99.90;;;;;;5073602;28;20290;-83
2022/02/05 04:55:28;;;;;;;9.35;4.78;;;4.20;99.90;;;;;;5017394;28;20203;-82
2022/02/05 04:58:06;;;;;;;10.90;4.00;;;4.20;99.90;;;;;;5062304;28;20187;-82
2022/02/05 05:03:36;;;;;;;7.32;3.97;;;4.30;99.90;;;;;;5065932;28;20195;-79
2022/02/05 05:06:15;;;;;;;6.20;3.45;;;4.00;99.90;;;;;;5074127;28;20346;-82
2022/02/05 05:08:51;;;;;;;5.47;3.70;;;4.30;99.90;;;;;;5070011;28;20301;-83
2022/02/05 05:11:44;;;;;;;7.03;4.28;;;4.40;99.90;;;;;;5062958;28;20289;-83
2022/02/05 05:19:47;;;;;;;18.50;11.35;;;4.40;99.90;;;;;;5061845;28;20179;-82
2022/02/05 05:22:15;;;;;;;15.30;7.25;;;4.50;99.90;;;;;;5063079;28;20249;-82
2022/02/05 05:24:42;;;;;;;13.85;8.07;;;4.40;99.90;;;;;;5076679;28;20199;-84
2022/02/05 05:27:09;;;;;;;11.93;7.72;;;4.50;99.90;;;;;;5080125;28;20219;-81
2022/02/05 05:29:36;;;;;;;18.80;12.98;;;4.50;99.90;;;;;;5075671;28;20654;-81
2022/02/05 05:32:02;;;;;;;12.02;8.65;;;4.40;99.90;;;;;;5066242;28;20234;-82
2022/02/05 05:34:29;;;;;;;11.27;5.20;;;4.50;99.90;;;;;;5062291;28;20576;-84
2022/02/05 05:36:57;;;;;;;6.38;5.47;;;4.50;99.90;;;;;;5061516;28;20222;-83
2022/02/05 05:39:24;;;;;;;8.02;4.53;;;4.50;99.90;;;;;;5065811;28;20207;-79
2022/02/05 05:41:51;;;;;;;4.57;4.18;;;4.50;99.90;;;;;;5070295;28;20199;-81
2022/02/05 05:47:32;;;;;;;7.38;4.85;;;4.40;99.90;;;;;;5068518;28;20344;-82
2022/02/05 05:50:04;;;;;;;4.50;4.15;;;4.40;99.90;;;;;;5075607;28;20210;-80
2022/02/05 05:52:32;;;;;;;6.93;6.15;;;4.20;99.90;;;;;;5074675;28;20346;-82
2022/02/05 05:54:59;;;;;;;5.65;4.22;;;4.20;99.90;;;;;;5060732;28;20199;-81
2022/02/05 05:57:26;;;;;;;6.00;4.97;;;4.30;99.90;;;;;;5059551;28;20218;-81
2022/02/05 05:59:52;;;;;;;5.20;4.50;;;4.40;99.90;;;;;;5061206;28;20274;-82
2022/02/05 06:02:19;;;;;;;12.05;4.47;;;4.40;99.90;;;;;;5069625;28;20203;-82
2022/02/05 06:04:46;;;;;;;11.07;4.97;;;4.40;99.90;;;;;;5065566;28;20233;-82
2022/02/05 06:07:12;;;;;;;8.30;5.00;;;4.40;99.90;;;;;;5061078;28;20249;-83
2022/02/05 06:09:43;;;;;;;9.13;5.00;;;4.40;99.90;;;;;;5060356;28;20507;-82
2022/02/05 06:12:11;;;;;;;6.55;4.65;;;4.40;99.90;;;;;;5059789;28;20207;-82
2022/02/05 06:14:38;;;;;;;7.03;3.95;;;4.30;99.90;;;;;;5060677;28;20203;-83
2022/02/05 06:17:08;;;;;;;7.45;4.53;;;4.30;99.90;;;;;;5060486;28;20261;-82
2022/02/05 06:19:36;;;;;;;9.38;4.20;;;4.20;99.90;;;;;;5060550;28;20250;-83
2022/02/05 06:22:05;;;;;;;6.75;4.80;;;4.40;99.90;;;;;;5060565;28;20203;-81
2022/02/05 06:24:32;;;;;;;12.75;5.53;;;4.20;99.90;;;;;;5059482;28;20210;-82
2022/02/05 06:27:00;;;;;;;5.57;4.13;;;4.20;99.90;;;;;;5060036;28;20219;-80
2022/02/05 06:29:26;;;;;;;4.57;4.15;;;4.30;99.90;;;;;;5060765;28;20572;-83
2022/02/05 06:31:53;;;;;;;5.88;3.55;;;4.10;99.90;;;;;;5059945;28;20227;-82
2022/02/05 06:34:19;;;;;;;6.15;5.38;;;4.30;99.90;;;;;;5072196;28;20203;-81
2022/02/05 06:36:46;;;;;;;4.22;3.83;;;4.30;99.90;;;;;;5074202;28;20276;-81
2022/02/05 06:39:13;;;;;;;7.43;4.85;;;4.20;99.90;;;;;;5068821;28;20254;-82
2022/02/05 06:41:39;;;;;;;9.63;4.68;;;4.30;99.90;;;;;;5065538;28;20439;-82
2022/02/05 06:44:07;;;;;;;9.20;6.70;;;4.40;99.90;;;;;;5065715;28;20210;-80
2022/02/05 06:46:34;;;;;;;9.43;5.35;;;4.60;99.90;;;;;;5073858;28;20223;-80
2022/02/05 06:49:00;;;;;;;6.53;4.57;;;4.30;99.90;;;;;;5073893;28;20435;-80
2022/02/05 06:51:27;;;;;;;6.95;4.60;;;4.20;99.90;;;;;;5069923;28;20222;-82
2022/02/05 06:53:54;;;;;;;5.25;4.75;;;4.10;99.90;;;;;;5059361;28;20284;-83
2022/02/05 06:56:20;;;;;;;7.28;5.20;;;4.10;99.90;;;;;;5058644;28;20219;-82
2022/02/05 06:58:47;;;;;;;10.07;5.90;;;4.10;99.90;;;;;;5064852;28;20225;-80
2022/02/05 07:01:15;;;;;;;8.25;4.78;;;3.70;99.90;;;;;;5075090;28;20435;-80
2022/02/05 07:03:41;;;;;;;7.78;5.38;;;4.00;99.90;;;;;;5073796;28;20191;-81
2022/02/05 07:06:08;;;;;;;5.78;4.57;;;4.10;99.90;;;;;;5065360;28;20651;-83
2022/02/05 07:08:35;;;;;;;11.13;5.72;;;4.00;99.90;;;;;;5063228;28;20210;-82
2022/02/05 07:11:01;;;;;;;10.45;5.97;;;4.00;99.90;;;;;;5062895;28;20206;-83
2022/02/05 07:13:28;;;;;;;4.63;3.10;;;4.00;99.90;;;;;;5059513;28;20636;-84
2022/02/05 07:16:00;;;;;;;8.82;2.85;;;3.70;99.90;;;;;;5069990;28;20330;-83
2022/02/05 07:18:36;;;;;;;2.53;2.33;;;3.60;99.90;;;;;;5074235;28;20198;-81
2022/02/05 07:21:07;;;;;;;3.40;2.25;;;3.30;99.90;;;;;;5074371;28;20203;-80
2022/02/05 07:23:57;;;;;;;3.00;2.30;;;3.10;99.90;;;;;;5074531;28;20171;-81
2022/02/05 07:29:15;;;;;;;4.50;2.22;;;2.60;99.90;;;;;;5074531;28;20182;-82
2022/02/05 07:31:47;;;;;;;3.92;2.10;;;2.40;99.90;;;;;;5072396;28;20218;-82
2022/02/05 07:34:18;;;;;;;1.90;1.80;;;2.40;99.90;;;;;;5072200;28;20202;-83
2022/02/05 07:36:46;;;;;;;2.55;2.35;;;2.20;99.90;;;;;;5075358;28;20250;-82
2022/02/05 07:39:15;;;;;;;1.52;1.40;;;2.30;99.90;;;;;;5075271;28;20213;-82
2022/02/05 07:41:45;;;;;;;2.72;2.30;;;2.30;99.90;;;;;;5071327;28;20194;-83
2022/02/05 07:44:15;;;;;;;5.50;1.98;;;2.30;99.90;;;;;;5064018;28;20207;-83
2022/02/05 07:46:46;;;;;;;2.17;2.03;;;2.40;99.90;;;;;;5064416;28;20717;-84
2022/02/05 07:49:16;;;;;;;2.38;2.17;;;2.40;99.90;;;;;;5076523;28;20213;-82
2022/02/05 07:51:47;;;;;;;6.25;2.80;;;2.50;99.90;;;;;;5074812;28;20199;-81
2022/02/05 07:54:14;;;;;;;3.15;2.65;;;2.50;99.90;;;;;;5063599;28;20528;-81
2022/02/05 07:56:42;;;;;;;3.40;2.78;;;2.50;99.90;;;;;;5075758;28;20330;-84
2022/02/05 07:59:11;;;;;;;6.10;3.65;;;2.50;99.90;;;;;;5077992;28;20195;-80
2022/02/05 08:01:38;;;;;;;3.30;3.00;;;2.80;99.90;;;;;;5073324;28;20222;-83
2022/02/05 08:04:08;;;;;;;4.22;3.10;;;2.70;99.90;;;;;;5071828;28;20203;-85
2022/02/05 08:06:36;;;;;;;4.05;3.30;;;2.80;99.90;;;;;;5099296;22;20320;-85
2022/02/05 08:09:11;;;;;;;4.03;2.88;;;2.70;99.90;;;;;;5103255;28;20194;-85
2022/02/05 08:11:41;;;;;;;7.85;2.85;;;2.70;99.90;;;;;;5105759;28;20271;-84
2022/02/05 08:14:09;;;;;;;4.90;3.22;;;2.70;99.90;;;;;;5105604;28;20186;-85
2022/02/05 08:16:49;;;;;;;4.82;2.92;;;2.70;99.90;;;;;;5099435;28;20680;-84
2022/02/05 08:19:18;;;;;;;6.65;3.83;;;2.80;99.90;;;;;;5107211;28;20220;-83
2022/02/05 08:21:46;;;;;;;5.22;3.28;;;2.90;99.90;;;;;;5107709;28;20201;-84
2022/02/05 08:24:12;;;;;;;5.97;2.70;;;2.90;99.90;;;;;;5100387;28;20211;-85
2022/02/05 08:26:40;;;;;;;4.20;2.85;;;3.00;99.90;;;;;;5100321;28;20225;-83
2022/02/05 08:29:08;;;;;;;3.63;2.30;;;3.00;99.90;;;;;;5101639;28;20190;-85
2022/02/05 08:31:35;;;;;;;5.07;2.78;;;3.00;99.90;;;;;;5106534;28;20212;-83
2022/02/05 08:34:02;;;;;;;5.82;3.05;;;3.10;99.90;;;;;;5106196;28;20432;-84
2022/02/05 08:36:31;;;;;;;3.92;2.50;;;3.20;99.90;;;;;;5106919;28;20213;-84
2022/02/05 08:39:00;;;;;;;3.95;2.70;;;3.30;99.90;;;;;;5106817;28;20206;-83
2022/02/05 08:41:26;;;;;;;4.80;3.22;;;3.30;99.90;;;;;;5101448;28;20237;-84
2022/02/05 08:43:53;;;;;;;10.30;2.47;;;3.40;99.90;;;;;;5101304;28;20205;-85
2022/02/05 08:46:19;;;;;;;6.05;2.83;;;3.60;99.90;;;;;;5100549;28;20241;-84
2022/02/05 08:48:46;;;;;;;10.20;2.42;;;3.70;99.90;;;;;;5099436;28;20202;-84
2022/02/05 08:51:14;;;;;;;4.57;3.17;;;3.80;99.90;;;;;;5099904;28;20220;-84
2022/02/05 08:53:41;;;;;;;7.38;2.47;;;3.90;99.90;;;;;;5099616;28;20217;-84
2022/02/05 08:56:09;;;;;;;1.90;1.80;;;4.00;99.90;;;;;;5099959;28;20224;-84
2022/02/05 08:58:36;;;;;;;3.75;2.35;;;4.20;99.90;;;;;;5109993;28;20245;-85
2022/02/05 09:01:12;;;;;;;4.22;1.73;;;4.00;99.90;;;;;;5104481;28;20443;-82
2022/02/05 09:03:46;;;;;;;4.03;2.47;;;4.00;99.90;;;;;;5102291;28;20181;-85
2022/02/05 09:06:13;;;;;;;4.20;2.08;;;4.00;99.90;;;;;;5103634;28;20611;-85
2022/02/05 09:08:45;;;;;;;5.40;2.10;;;4.00;99.90;;;;;;5104749;28;20440;-85
2022/02/05 09:11:28;;;;;;;6.53;2.20;;;4.00;99.90;;;;;;5102785;28;20181;-84
2022/02/05 09:14:10;;;;;;;2.35;1.83;;;4.00;99.90;;;;;;5107847;28;20272;-85
2022/02/05 09:19:51;;;;;;;2.92;2.00;;;4.40;99.90;;;;;;5113994;28;20192;-85
2022/02/05 09:22:21;;;;;;;6.40;2.30;;;4.10;99.90;;;;;;5112377;28;20625;-85
2022/02/05 09:24:48;;;;;;;4.03;2.63;;;;;;;;;;5108355;28;20656;-84
2022/02/05 09:27:17;;;;;;;2.40;2.20;;;4.20;99.90;;;;;;5104942;28;20248;-84
2022/02/05 09:29:57;;;;;;;4.20;2.53;;;4.30;99.90;;;;;;5104874;28;20223;-84
2022/02/05 09:32:24;;;;;;;2.80;2.45;;;4.30;99.90;;;;;;5104525;28;20213;-84
2022/02/05 09:34:51;;;;;;;3.65;2.38;;;4.20;99.90;;;;;;5104319;28;20293;-85
2022/02/05 09:37:17;;;;;;;9.35;3.70;;;4.20;99.90;;;;;;5104168;28;20722;-84
2022/02/05 09:39:44;;;;;;;4.55;2.28;;;4.20;99.90;;;;;;5103880;28;20197;-85
2022/02/05 09:42:11;;;;;;;3.85;2.55;;;4.20;99.90;;;;;;5104459;28;20265;-85
2022/02/05 09:44:39;;;;;;;3.95;2.15;;;4.30;99.90;;;;;;5106718;28;20259;-85
2022/02/05 09:47:07;;;;;;;3.15;2.42;;;4.20;99.90;;;;;;5113518;28;20218;-85
2022/02/05 09:49:33;;;;;;;4.28;2.45;;;4.30;99.90;;;;;;5113558;28;20205;-85
2022/02/05 09:52:08;;;;;;;7.35;2.90;;;4.40;99.90;;;;;;5102902;28;20201;-84
2022/02/05 09:54:36;;;;;;;2.78;2.20;;;4.50;99.90;;;;;;5102317;28;20622;-84
2022/02/05 09:57:03;;;;;;;11.30;5.53;;;4.50;99.90;;;;;;5104471;28;20217;-84
2022/02/05 09:59:31;;;;;;;8.95;3.85;;;4.50;99.90;;;;;;5106201;28;20614;-85
2022/02/05 10:02:28;;;;;;;5.85;4.65;;;4.70;99.90;;;;;;5110504;28;20211;-85
2022/02/05 10:04:57;;;;;;;8.70;4.85;;;4.60;99.90;;;;;;5092501;28;20587;-85
2022/02/05 10:07:25;;;;;;;5.85;4.45;;;4.80;99.90;;;;;;5116626;28;20220;-81
2022/02/05 10:09:56;;;;;;;5.25;3.15;;;4.30;99.90;;;;;;5119698;28;20193;-84
2022/02/05 10:12:23;;;;;;;5.85;5.35;;;4.70;99.90;;;;;;5119678;28;20214;-83
2022/02/05 10:14:54;;;;;;;4.13;2.83;;;4.80;99.90;;;;;;5119921;28;20186;-84
2022/02/05 10:17:21;;;;;;;4.05;2.63;;;4.60;99.90;;;;;;5106694;28;20265;-85
2022/02/05 10:19:51;;;;;;;8.32;4.10;;;4.70;99.90;;;;;;5109957;28;20202;-84
2022/02/05 10:22:20;;;;;;;6.35;2.72;;;4.70;99.90;;;;;;5118224;28;20223;-84
2022/02/05 10:24:54;;;;;;;3.80;2.60;;;5.10;99.90;;;;;;5119460;28;20261;-84
2022/02/05 10:27:28;;;;;;;8.10;2.80;;;4.90;99.90;;;;;;5117485;28;20480;-84
2022/02/05 10:30:09;;;;;;;6.47;3.33;;;4.80;99.90;;;;;;5116732;28;20186;-85
2022/02/05 10:32:40;;;;;;;9.25;2.72;;;4.90;99.90;;;;;;5103301;28;20579;-84
2022/02/05 10:35:20;;;;;;;8.52;2.97;;;4.90;99.90;;;;;;5108771;28;20205;-85
2022/02/05 10:37:53;;;;;;;4.47;3.20;;;4.90;99.90;;;;;;5101970;28;20232;-85
2022/02/05 10:40:22;;;;;;;4.70;3.67;;;4.70;99.90;;;;;;5100524;28;20612;-85
2022/02/05 10:45:44;;;;;;;4.03;3.33;;;5.00;99.90;;;;;;5101530;28;20193;-86
2022/02/05 10:48:26;;;;;;;8.20;4.80;;;5.30;99.90;;;;;;5103364;28;20208;-85
2022/02/05 10:50:56;;;;;;;5.90;2.97;;;5.00;99.90;;;;;;5102443;28;20218;-85
2022/02/05 10:53:25;;;;;;;4.45;3.08;;;5.10;99.90;;;;;;5102502;28;20255;-84
2022/02/05 10:56:01;;;;;;;5.60;3.15;;;4.80;99.90;;;;;;5104394;28;20243;-84
2022/02/05 10:58:43;;;;;;;5.40;2.97;;;5.00;99.90;;;;;;5104474;28;20621;-84
2022/02/05 11:06:59;;;;;;;15.48;2.65;;;5.20;99.90;;;;;;5102022;28;20227;-85
2022/02/05 11:09:26;;;;;;;7.07;2.72;;;5.40;99.90;;;;;;5101742;28;20288;-85
2022/02/05 11:20:10;;;;;;;4.35;2.47;;;5.30;99.90;;;;;;5100863;28;20204;-84
2022/02/05 11:22:50;;;;;;;5.93;2.67;;;5.40;99.90;;;;;;5102193;28;20549;-84
2022/02/05 11:25:22;;;;;;;5.57;3.50;;;5.40;99.90;;;;;;5100941;28;20190;-84
2022/02/05 11:27:51;;;;;;;8.10;2.30;;;5.50;99.90;;;;;;5101244;28;20222;-85
2022/02/05 11:30:39;;;;;;;4.78;3.08;;;5.50;99.90;;;;;;5101399;28;20232;-85
2022/02/05 11:33:23;;;;;;;13.65;3.40;;;5.60;99.90;;;;;;5103510;28;20221;-85
2022/02/05 11:38:57;;;;;;;6.88;3.67;;;5.30;99.90;;;;;;5089494;28;20221;-84
2022/02/05 11:41:28;;;;;;;9.07;3.28;;;6.10;99.90;;;;;;5100408;28;20196;-85
2022/02/05 11:44:19;;;;;;;18.05;5.05;;;5.20;99.90;;;;;;5099445;28;20255;-84
2022/02/05 11:47:23;;;;;;;11.75;4.22;;;5.10;99.90;;;;;;5105263;28;20237;-85
2022/02/05 11:50:17;;;;;;;6.97;3.58;;;4.80;99.90;;;;;;5103676;28;20571;-84
2022/02/05 11:52:58;;;;;;;12.52;3.95;;;4.60;99.90;;;;;;5093126;28;20201;-84
2022/02/05 11:55:42;;;;;;;8.95;4.10;;;5.00;99.90;;;;;;5102203;28;20221;-83
2022/02/05 11:58:14;;;;;;;7.65;3.25;;;5.10;99.90;;;;;;5110626;28;20201;-84
2022/02/05 12:00:48;;;;;;;11.80;3.40;;;5.20;99.90;;;;;;5113400;28;20184;-83
2022/02/05 12:03:26;;;;;;;14.15;3.70;;;5.30;99.90;;;;;;5114992;28;20187;-84
2022/02/05 12:05:55;;;;;;;10.07;3.47;;;5.20;99.90;;;;;;5114031;28;20200;-82
2022/02/05 12:08:24;;;;;;;12.00;4.55;;;5.50;99.90;;;;;;5115880;28;20174;-84
2022/02/05 12:10:56;;;;;;;7.05;3.35;;;5.50;99.90;;;;;;5117089;28;20181;-84
2022/02/05 12:13:26;;;;;;;9.98;3.10;;;5.70;99.90;;;;;;5116978;28;20271;-83
2022/02/05 12:16:21;;;;;;;7.18;2.90;;;5.70;99.90;;;;;;5102254;28;20209;-81
2022/02/05 12:19:11;;;;;;;11.40;3.85;;;5.70;99.90;;;;;;5103979;28;20232;-81
2022/02/05 12:21:59;;;;;;;8.10;2.90;;;6.10;99.90;;;;;;5104461;28;20428;-80
2022/02/05 12:24:39;;;;;;;12.80;3.00;;;5.90;99.90;;;;;;5106056;28;20182;-81
2022/02/05 12:27:32;;;;;;;18.63;3.10;;;5.90;99.90;;;;;;5104669;28;20296;-81
2022/02/05 12:30:36;;;;;;;9.63;3.40;;;6.10;99.90;;;;;;5105491;28;20221;-80
2022/02/05 12:33:03;;;;;;;8.70;2.92;;;6.60;99.90;;;;;;5108348;28;20274;-79
2022/02/05 12:35:30;;;;;;;8.35;3.75;;;6.30;99.90;;;;;;5107783;28;20242;-79
2022/02/05 12:38:00;;;;;;;7.70;3.42;;;6.40;99.90;;;;;;5108083;28;20241;-80
2022/02/05 12:40:28;;;;;;;5.97;2.78;;;6.50;99.90;;;;;;5109374;28;20189;-81
2022/02/05 12:42:57;;;;;;;6.30;2.83;;;6.60;99.90;;;;;;5106234;28;20232;-80
2022/02/05 12:45:36;;;;;;;10.43;2.85;;;6.60;99.90;;;;;;5106018;28;20201;-81
2022/02/05 12:48:06;;;;;;;7.28;3.35;;;6.60;99.90;;;;;;5105830;28;20225;-81
2022/02/05 12:50:33;;;;;;;16.30;2.67;;;6.60;99.90;;;;;;5111849;28;20223;-79
2022/02/05 12:53:01;;;;;;;7.20;2.47;;;6.60;99.90;;;;;;5115137;28;20216;-79
2022/02/05 12:55:33;;;;;;;7.70;3.10;;;6.50;99.90;;;;;;5118018;28;20201;-80
2022/02/05 12:58:01;;;;;;;10.23;3.00;;;6.50;99.90;;;;;;5117876;28;20232;-79
2022/02/05 13:00:28;;;;;;;4.47;2.42;;;6.50;99.90;;;;;;5113159;28;20252;-81
2022/02/05 13:02:55;;;;;;;4.00;2.05;;;6.40;99.90;;;;;;5109626;28;20206;-81
2022/02/05 13:05:32;;;;;;;16.10;4.57;;;6.40;99.90;;;;;;5109365;28;20202;-82
2022/02/05 13:07:58;;;;;;;8.13;3.78;;;6.40;99.90;;;;;;5108010;28;20265;-81
2022/02/05 13:10:26;;;;;;;5.55;3.47;;;6.40;99.90;;;;;;5107554;28;20206;-79
2022/02/05 13:12:56;;;;;;;13.15;3.28;;;6.30;99.90;;;;;;5107109;28;20193;-80
2022/02/05 13:15:27;;;;;;;7.88;2.78;;;6.30;99.90;;;;;;5106631;28;20196;-81
2022/02/05 13:18:11;;;;;;;5.80;3.00;;;6.20;99.90;;;;;;5108618;28;20217;-80
2022/02/05 13:26:19;;;;;;;7.25;2.72;;;6.30;99.90;;;;;;5107225;28;20247;-82
2022/02/05 13:28:54;;;;;;;6.13;3.13;;;6.20;99.90;;;;;;5108327;28;20190;-81
2022/02/05 13:34:13;;;;;;;13.30;4.22;;;6.20;99.90;;;;;;5110797;28;20578;-82
2022/02/05 13:36:43;;;;;;;10.70;3.38;;;6.20;99.90;;;;;;5111307;28;20260;-80
2022/02/05 13:39:24;;;;;;;4.57;2.78;;;6.20;99.90;;;;;;5110429;28;20273;-81
2022/02/05 13:41:57;;;;;;;11.57;3.30;;;6.20;99.90;;;;;;5115105;28;20190;-80
2022/02/05 13:44:29;;;;;;;5.85;2.67;;;6.20;99.90;;;;;;5115039;28;20170;-80
2022/02/05 13:47:02;;;;;;;6.05;3.25;;;6.30;99.90;;;;;;5114925;28;20229;-80
2022/02/05 13:49:29;;;;;;;11.23;3.30;;;6.20;99.90;;;;;;5113963;28;20262;-80
2022/02/05 13:51:56;;;;;;;6.88;3.20;;;6.30;99.90;;;;;;5107700;28;20263;-84
2022/02/05 13:54:34;;;;;;;15.77;3.80;;;6.30;99.90;;;;;;5109939;28;20201;-83
2022/02/05 13:57:01;;;;;;;3.50;3.10;;;6.30;99.90;;;;;;5107989;28;20700;-84
2022/02/05 13:59:28;;;;;;;3.47;2.20;;;6.40;99.90;;;;;;5111713;28;20259;-85
2022/02/05 14:01:55;;;;;;;14.00;3.35;;;6.50;99.90;;;;;;5108024;28;20228;-85
2022/02/05 14:04:26;;;;;;;11.38;2.78;;;6.20;99.90;;;;;;5104806;28;20217;-85
2022/02/05 14:06:54;;;;;;;5.95;2.75;;;7.00;99.90;;;;;;5105211;28;20221;-84
2022/02/05 14:09:25;;;;;;;8.40;2.60;;;6.20;99.90;;;;;;5106277;28;20205;-85
2022/02/05 14:11:52;;;;;;;10.55;2.50;;;6.30;99.90;;;;;;5105302;28;20258;-85
2022/02/05 14:14:27;;;;;;;5.53;3.25;;;6.20;99.90;;;;;;5104480;28;20221;-85
2022/02/05 14:16:54;;;;;;;7.07;2.70;;;6.30;99.90;;;;;;5105375;28;20315;-85
2022/02/05 14:19:24;;;;;;;9.07;3.38;;;6.30;99.90;;;;;;5106191;28;20213;-85
2022/02/05 14:21:53;;;;;;;6.22;3.40;;;6.20;99.90;;;;;;5105958;28;20257;-85
2022/02/05 14:24:23;;;;;;;9.10;3.10;;;6.30;99.90;;;;;;5104131;28;20198;-85
2022/02/05 14:26:58;;;;;;;5.85;3.25;;;6.40;99.90;;;;;;5112970;28;20226;-86
2022/02/05 14:29:26;;;;;;;5.90;2.22;;;6.20;99.90;;;;;;5111204;28;20253;-85
2022/02/05 14:31:54;;;;;;;3.97;3.40;;;6.30;99.90;;;;;;5108287;28;20201;-85
2022/02/05 14:34:36;;;;;;;6.28;2.92;;;6.20;99.90;;;;;;5107610;28;20217;-85
2022/02/05 14:42:28;;;;;;;4.75;2.53;;;6.20;99.90;;;;;;5100612;28;20227;-86
2022/02/05 14:44:55;;;;;;;7.95;3.15;;;6.30;99.90;;;;;;5101489;28;20283;-85
2022/02/05 14:47:22;;;;;;;4.40;2.40;;;6.20;99.90;;;;;;5100369;28;20225;-85
2022/02/05 14:49:49;;;;;;;6.95;3.15;;;6.40;99.90;;;;;;5100197;28;20226;-84
2022/02/05 14:52:16;;;;;;;7.60;2.50;;;6.20;99.90;;;;;;5099911;28;20231;-84
2022/02/05 14:54:43;;;;;;;5.28;2.20;;;6.20;99.90;;;;;;5100306;28;20232;-84
2022/02/05 14:57:11;;;;;;;8.05;2.70;;;6.20;99.90;;;;;;5100282;28;20229;-84
2022/02/05 14:59:39;;;;;;;8.30;2.97;;;6.20;99.90;;;;;;5101301;28;20255;-85
2022/02/05 15:22:59;;;;;;;5.18;2.90;;;6.20;99.90;;;;;;4987505;28;20258;-87
2022/02/05 15:29:40;;;;;;;8.90;2.80;;;6.10;99.90;;;;;;4917964;29;20187;-87
2022/02/05 15:45:40;;;;;;;10.07;2.67;;;5.80;99.90;;;;;;4965892;28;20284;-91